Time;durP1;ratioP1;P1;durP2;ratioP2;P2;SDS_P1;SDS_P2;PMS_P1;PMS_P2;Temp;Humidity;BMP_temperature;BMP_pressure;BME280_temperature;BME280_humidity;BME280_pressure;Samples;Min_cycle;Max_cycle;Signal;HPM_P1;HPM_P2
2024/04/05 00:00:19;;;;;;;4.10;1.80;;;9.20;99.90;;;;;;4871595;28;20108;-50
2024/04/05 00:02:45;;;;;;;6.05;1.75;;;9.20;99.90;;;;;;4932975;28;21511;-50
2024/04/05 00:05:12;;;;;;;6.32;2.00;;;9.20;99.90;;;;;;4891184;28;20034;-52
2024/04/05 00:07:39;;;;;;;3.85;1.50;;;9.30;99.90;;;;;;4898392;28;20053;-59
2024/04/05 00:10:06;;;;;;;3.67;2.03;;;9.20;99.90;;;;;;4885240;28;20049;-52
2024/04/05 00:12:31;;;;;;;5.18;1.70;;;9.20;99.90;;;;;;4907263;28;20561;-51
2024/04/05 00:14:57;;;;;;;3.08;1.58;;;9.20;99.90;;;;;;4927703;28;20144;-49
2024/04/05 00:17:23;;;;;;;8.55;2.25;;;9.30;99.90;;;;;;4893379;28;20022;-55
2024/04/05 00:19:48;;;;;;;5.13;1.45;;;9.30;99.90;;;;;;4864741;28;20026;-53
2024/04/05 00:22:14;;;;;;;3.78;1.92;;;9.20;99.90;;;;;;4973595;28;20523;-45
2024/04/05 00:24:39;;;;;;;7.68;2.05;;;9.20;99.90;;;;;;4950215;28;20031;-46
2024/04/05 00:27:05;;;;;;;6.22;1.88;;;9.20;99.90;;;;;;4927172;28;20417;-46
2024/04/05 00:29:31;;;;;;;6.30;1.73;;;9.10;99.90;;;;;;4923450;28;20038;-62
2024/04/05 00:31:56;;;;;;;4.13;1.63;;;9.10;99.90;;;;;;4934165;28;21633;-50
2024/04/05 00:34:22;;;;;;;7.30;2.08;;;9.00;99.90;;;;;;4965627;28;20034;-52
2024/04/05 00:36:47;;;;;;;7.53;2.38;;;9.10;99.90;;;;;;4923444;28;20560;-50
2024/04/05 00:39:13;;;;;;;7.18;2.38;;;9.10;99.90;;;;;;4912708;28;20040;-50
2024/04/05 00:41:39;;;;;;;9.30;2.72;;;9.10;99.90;;;;;;4911493;28;20061;-51
2024/04/05 00:44:04;;;;;;;8.27;1.50;;;9.00;99.90;;;;;;4940674;28;21440;-59
2024/04/05 00:46:32;;;;;;;5.38;1.77;;;9.10;99.90;;;;;;4960419;28;20033;-48
2024/04/05 00:48:57;;;;;;;7.70;2.15;;;9.00;99.90;;;;;;4937108;28;20037;-49
2024/04/05 00:51:23;;;;;;;3.90;1.40;;;9.00;99.90;;;;;;4906795;28;20506;-50
2024/04/05 00:53:49;;;;;;;7.70;2.30;;;9.00;99.90;;;;;;4905098;28;20805;-52
2024/04/05 00:56:15;;;;;;;5.18;1.60;;;9.00;99.90;;;;;;4937184;28;20540;-54
2024/04/05 00:58:41;;;;;;;4.22;1.45;;;9.00;99.90;;;;;;4961370;28;20125;-61
2024/04/05 01:01:08;;;;;;;4.05;1.67;;;8.90;99.90;;;;;;4926648;28;20038;-50
2024/04/05 01:03:33;;;;;;;7.57;2.28;;;8.90;99.90;;;;;;4909889;28;20075;-51
2024/04/05 01:05:59;;;;;;;4.57;1.98;;;8.90;99.90;;;;;;4908038;28;20521;-53
2024/04/05 01:08:25;;;;;;;6.88;2.20;;;8.90;99.90;;;;;;4932726;28;20026;-51
2024/04/05 01:10:51;;;;;;;6.57;1.73;;;8.90;99.90;;;;;;4892664;28;20168;-50
2024/04/05 01:13:16;;;;;;;7.20;2.13;;;8.90;99.90;;;;;;4970488;28;20029;-49
2024/04/05 01:15:42;;;;;;;11.00;2.85;;;8.90;99.90;;;;;;4911525;28;20034;-46
2024/04/05 01:18:10;;;;;;;5.65;1.73;;;8.90;99.90;;;;;;4892865;28;20402;-48
2024/04/05 01:20:36;;;;;;;7.03;2.42;;;8.90;99.90;;;;;;4896425;28;20105;-52
2024/04/05 01:23:06;;;;;;;9.60;2.83;;;8.90;99.90;;;;;;4928633;28;21216;-46
2024/04/05 01:25:33;;;;;;;10.48;2.75;;;8.90;99.90;;;;;;4950545;28;20026;-50
2024/04/05 01:28:00;;;;;;;10.27;2.60;;;8.90;99.90;;;;;;4915058;28;20612;-48
2024/04/05 01:30:26;;;;;;;8.10;2.33;;;8.90;99.90;;;;;;4892013;28;20026;-54
2024/04/05 01:33:00;;;;;;;8.40;2.47;;;9.00;99.90;;;;;;4902946;28;20061;-50
2024/04/05 01:35:29;;;;;;;8.60;2.60;;;9.00;99.90;;;;;;4926569;28;20069;-49
2024/04/05 01:37:55;;;;;;;12.95;2.50;;;9.00;99.90;;;;;;4908750;28;21384;-50
2024/04/05 01:40:22;;;;;;;4.93;2.45;;;9.00;99.90;;;;;;4974540;28;21377;-49
2024/04/05 01:42:47;;;;;;;9.18;2.53;;;9.00;99.90;;;;;;4912058;28;20076;-49
2024/04/05 01:45:13;;;;;;;8.18;2.88;;;9.00;99.90;;;;;;4891196;28;20133;-47
2024/04/05 01:47:39;;;;;;;8.27;2.65;;;9.00;99.90;;;;;;4887092;28;20032;-51
2024/04/05 01:50:05;;;;;;;7.82;1.85;;;9.00;99.90;;;;;;4922867;28;21195;-51
2024/04/05 01:52:31;;;;;;;7.35;1.90;;;8.90;99.90;;;;;;4964182;28;20840;-50
2024/04/05 01:54:57;;;;;;;6.30;2.13;;;8.90;99.90;;;;;;4902269;28;20026;-53
2024/04/05 01:57:23;;;;;;;8.02;2.30;;;8.90;99.90;;;;;;4880603;28;20025;-49
2024/04/05 01:59:50;;;;;;;5.60;2.28;;;8.90;99.90;;;;;;4898196;28;21447;-51
2024/04/05 02:02:16;;;;;;;6.65;2.42;;;8.90;99.90;;;;;;4920787;28;20049;-51
2024/04/05 02:04:43;;;;;;;5.88;2.58;;;8.90;99.90;;;;;;4923140;28;20034;-60
2024/04/05 02:07:08;;;;;;;11.27;3.40;;;8.90;99.90;;;;;;4939794;28;20033;-52
2024/04/05 02:09:34;;;;;;;7.03;2.72;;;8.90;99.90;;;;;;4901762;28;20700;-51
2024/04/05 02:12:00;;;;;;;12.73;2.90;;;8.90;99.90;;;;;;4886953;28;20030;-48
2024/04/05 02:14:26;;;;;;;10.45;3.40;;;8.90;99.90;;;;;;4916804;28;20125;-60
2024/04/05 02:16:55;;;;;;;8.35;2.83;;;9.00;99.90;;;;;;4885410;28;20029;-49
2024/04/05 02:19:20;;;;;;;11.63;3.00;;;9.00;99.90;;;;;;4940819;28;22041;-53
2024/04/05 02:21:46;;;;;;;8.52;3.08;;;9.00;99.90;;;;;;4895252;28;20048;-48
2024/04/05 02:24:11;;;;;;;7.35;2.60;;;9.10;99.90;;;;;;4907917;28;20033;-48
2024/04/05 02:26:37;;;;;;;10.02;3.10;;;9.10;99.90;;;;;;4900595;28;20030;-49
2024/04/05 02:29:03;;;;;;;9.63;3.17;;;9.10;99.90;;;;;;4917109;28;21591;-52
2024/04/05 02:31:28;;;;;;;17.90;3.42;;;9.20;99.90;;;;;;4974099;28;20097;-51
2024/04/05 02:33:54;;;;;;;18.45;3.53;;;9.20;99.90;;;;;;4920070;28;20060;-48
2024/04/05 02:36:19;;;;;;;15.75;3.35;;;9.20;99.90;;;;;;4896670;28;20707;-47
2024/04/05 02:38:45;;;;;;;9.82;2.78;;;9.20;99.90;;;;;;4872675;28;20943;-51
2024/04/05 02:41:11;;;;;;;13.85;4.05;;;9.10;99.90;;;;;;4914452;28;20034;-47
2024/04/05 02:43:39;;;;;;;10.70;2.88;;;9.10;99.90;;;;;;4930342;28;20037;-60
2024/04/05 02:46:05;;;;;;;17.27;3.42;;;9.20;99.90;;;;;;4889118;28;20040;-59
2024/04/05 02:48:31;;;;;;;12.70;3.40;;;9.20;99.90;;;;;;4984712;28;20026;-55
2024/04/05 02:50:56;;;;;;;15.57;3.00;;;9.30;99.90;;;;;;4932592;28;20661;-52
2024/04/05 02:53:24;;;;;;;21.60;4.38;;;9.20;99.90;;;;;;4974565;28;21550;-51
2024/04/05 02:55:49;;;;;;;13.25;3.67;;;9.30;99.90;;;;;;4963756;28;20047;-53
2024/04/05 02:58:15;;;;;;;13.18;3.30;;;9.30;99.90;;;;;;4928611;28;20095;-55
2024/04/05 03:00:42;;;;;;;17.83;3.28;;;9.40;99.90;;;;;;4957449;28;20032;-51
2024/04/05 03:03:08;;;;;;;14.90;3.70;;;9.40;99.90;;;;;;4950310;28;20034;-49
2024/04/05 03:05:33;;;;;;;17.30;4.00;;;9.40;99.90;;;;;;4949788;28;20029;-52
2024/04/05 03:07:59;;;;;;;12.48;3.10;;;9.40;99.90;;;;;;4965632;28;20116;-51
2024/04/05 03:10:25;;;;;;;11.60;3.92;;;9.40;99.90;;;;;;4920795;28;21491;-52
2024/04/05 03:12:51;;;;;;;14.70;3.10;;;9.40;99.90;;;;;;4966805;28;20124;-51
2024/04/05 03:15:17;;;;;;;15.20;3.42;;;9.40;99.90;;;;;;4934611;28;20030;-52
2024/04/05 03:17:43;;;;;;;15.55;2.97;;;9.40;99.90;;;;;;4920189;28;20405;-53
2024/04/05 03:20:12;;;;;;;12.75;3.03;;;9.40;99.90;;;;;;4973761;28;20124;-50
2024/04/05 03:22:38;;;;;;;9.32;3.40;;;9.50;99.90;;;;;;4955510;28;20524;-53
2024/04/05 03:25:05;;;;;;;19.60;4.85;;;9.40;99.90;;;;;;4933283;28;20033;-59
2024/04/05 03:27:31;;;;;;;16.02;3.92;;;9.40;99.90;;;;;;4941530;28;20402;-53
2024/04/05 03:29:56;;;;;;;13.02;2.92;;;9.40;99.90;;;;;;4919173;28;20038;-55
2024/04/05 03:32:22;;;;;;;16.23;3.85;;;9.40;99.90;;;;;;4970426;28;20030;-54
2024/04/05 03:34:47;;;;;;;20.58;4.20;;;9.40;99.90;;;;;;4917571;28;20042;-52
2024/04/05 03:37:13;;;;;;;21.77;3.97;;;9.40;99.90;;;;;;4919038;28;20371;-50
2024/04/05 03:39:39;;;;;;;12.70;3.70;;;9.40;99.90;;;;;;4949918;28;20537;-50
2024/04/05 03:42:05;;;;;;;19.45;4.38;;;9.40;99.90;;;;;;4920616;28;20050;-56
2024/04/05 03:44:31;;;;;;;15.98;2.97;;;9.40;99.90;;;;;;4945629;28;20022;-58
2024/04/05 03:46:56;;;;;;;19.70;4.20;;;9.40;99.90;;;;;;4941937;28;20084;-50
2024/04/05 03:49:22;;;;;;;20.95;3.88;;;9.40;99.90;;;;;;4912922;28;21542;-54
2024/04/05 03:51:48;;;;;;;10.95;3.13;;;9.50;99.90;;;;;;4948303;28;20026;-54
2024/04/05 03:54:14;;;;;;;18.90;4.15;;;9.50;99.90;;;;;;4905005;28;20030;-50
2024/04/05 03:56:39;;;;;;;12.55;3.00;;;9.50;99.90;;;;;;4908512;28;20499;-48
2024/04/05 03:59:05;;;;;;;14.85;4.05;;;9.50;99.90;;;;;;4984503;28;20034;-54
2024/04/05 04:01:31;;;;;;;18.58;4.47;;;9.50;99.90;;;;;;4912936;28;20034;-50
2024/04/05 04:03:57;;;;;;;22.17;3.50;;;9.40;99.90;;;;;;4947351;28;20021;-54
2024/04/05 04:06:22;;;;;;;22.23;5.20;;;9.50;99.90;;;;;;4916068;28;20065;-52
2024/04/05 04:08:48;;;;;;;19.42;3.45;;;9.50;99.90;;;;;;4908444;28;20755;-48
2024/04/05 04:11:14;;;;;;;16.23;3.30;;;9.50;99.90;;;;;;4968631;28;20029;-53
2024/04/05 04:13:39;;;;;;;13.48;3.72;;;9.50;99.90;;;;;;4930300;28;20050;-49
2024/04/05 04:16:05;;;;;;;20.40;4.75;;;9.50;99.90;;;;;;4928650;28;20037;-60
2024/04/05 04:18:31;;;;;;;20.88;3.58;;;9.50;99.90;;;;;;4957340;28;20030;-49
2024/04/05 04:20:57;;;;;;;12.82;4.18;;;9.50;99.90;;;;;;4909185;28;21647;-52
2024/04/05 04:23:23;;;;;;;13.20;4.03;;;9.50;99.90;;;;;;4966877;28;20076;-55
2024/04/05 04:25:50;;;;;;;16.50;3.83;;;9.50;99.90;;;;;;4893417;28;20100;-53
2024/04/05 04:28:17;;;;;;;17.13;3.92;;;9.50;99.90;;;;;;4914986;28;20034;-52
2024/04/05 04:30:45;;;;;;;19.33;4.15;;;9.60;99.90;;;;;;4931384;28;20014;-54
2024/04/05 04:33:13;;;;;;;15.77;4.03;;;9.60;99.90;;;;;;4876957;28;20026;-50
2024/04/05 04:35:42;;;;;;;18.88;3.97;;;9.60;99.90;;;;;;4943826;28;20022;-59
2024/04/05 04:38:08;;;;;;;26.23;4.53;;;9.60;99.90;;;;;;4959312;28;20038;-51
2024/04/05 04:40:34;;;;;;;19.25;4.82;;;9.60;99.90;;;;;;4899209;28;20053;-52
2024/04/05 04:43:00;;;;;;;17.00;3.78;;;9.60;99.90;;;;;;4970202;28;20022;-51
2024/04/05 04:45:25;;;;;;;14.35;3.67;;;9.60;99.90;;;;;;4898841;28;20093;-53
2024/04/05 04:47:51;;;;;;;19.02;3.80;;;9.60;99.90;;;;;;4894636;28;21609;-51
2024/04/05 04:50:16;;;;;;;15.77;4.00;;;9.60;99.90;;;;;;4958343;28;20030;-51
2024/04/05 04:52:42;;;;;;;14.68;4.70;;;9.60;99.90;;;;;;4926257;28;20394;-52
2024/04/05 04:55:10;;;;;;;18.77;3.85;;;9.50;99.90;;;;;;4939727;28;20030;-62
2024/04/05 04:57:37;;;;;;;9.60;2.63;;;9.60;99.90;;;;;;4974491;28;20402;-51
2024/04/05 05:00:03;;;;;;;14.75;3.35;;;9.50;99.90;;;;;;4893872;28;20037;-52
2024/04/05 05:02:29;;;;;;;10.93;3.35;;;9.50;99.90;;;;;;4953042;28;20563;-51
2024/04/05 05:04:54;;;;;;;14.38;4.10;;;9.50;99.90;;;;;;4935912;28;20026;-51
2024/04/05 05:07:20;;;;;;;14.57;4.35;;;9.50;99.90;;;;;;4899047;28;21633;-53
2024/04/05 05:09:46;;;;;;;15.63;3.35;;;9.40;99.90;;;;;;4972149;28;20041;-50
2024/04/05 05:12:11;;;;;;;17.80;4.53;;;9.50;99.90;;;;;;4901123;28;20109;-51
2024/04/05 05:14:37;;;;;;;17.33;3.47;;;9.50;99.90;;;;;;4910477;28;20643;-59
2024/04/05 05:17:05;;;;;;;13.95;3.33;;;9.50;99.90;;;;;;4948931;28;20026;-51
2024/04/05 05:19:31;;;;;;;19.13;3.55;;;9.50;99.90;;;;;;4896729;28;20096;-49
2024/04/05 05:21:56;;;;;;;13.45;3.08;;;9.50;99.90;;;;;;4960288;28;20026;-51
2024/04/05 05:24:22;;;;;;;17.95;3.75;;;9.50;99.90;;;;;;4921467;28;20921;-52
2024/04/05 05:26:48;;;;;;;16.35;4.82;;;9.50;99.90;;;;;;4918587;28;20030;-52
2024/04/05 05:29:13;;;;;;;8.88;3.70;;;9.50;99.90;;;;;;4965499;22;20458;-86
2024/04/05 05:31:39;;;;;;;11.50;4.20;;;9.50;99.90;;;;;;4982439;28;20453;-86
2024/04/05 05:34:06;;;;;;;11.73;3.47;;;9.50;99.90;;;;;;4990767;28;20169;-86
2024/04/05 05:36:31;;;;;;;15.45;3.78;;;9.50;99.90;;;;;;4995740;28;20054;-85
2024/04/05 05:38:57;;;;;;;16.42;4.95;;;9.50;99.90;;;;;;4988815;28;21074;-86
2024/04/05 05:41:22;;;;;;;11.77;4.50;;;9.60;99.90;;;;;;4994096;28;20038;-87
2024/04/05 05:43:48;;;;;;;14.02;3.70;;;9.60;99.90;;;;;;4974659;28;20029;-86
2024/04/05 05:46:14;;;;;;;13.55;4.38;;;9.60;99.90;;;;;;4971090;28;20026;-86
2024/04/05 05:48:39;;;;;;;17.50;4.22;;;9.60;99.90;;;;;;4994399;28;20018;-86
2024/04/05 05:51:05;;;;;;;16.52;3.65;;;9.60;99.90;;;;;;4981863;28;21647;-86
2024/04/05 05:53:30;;;;;;;14.07;2.95;;;9.70;99.90;;;;;;4996742;28;20025;-86
2024/04/05 05:55:56;;;;;;;11.10;3.33;;;9.70;99.90;;;;;;4973749;28;20033;-86
2024/04/05 05:58:22;;;;;;;14.07;2.88;;;9.70;99.90;;;;;;4984997;28;20033;-86
2024/04/05 06:00:47;;;;;;;22.35;4.60;;;9.70;99.90;;;;;;5010026;28;20087;-88
2024/04/05 06:03:13;;;;;;;14.20;3.38;;;9.70;99.90;;;;;;4982132;28;20609;-87
2024/04/05 06:05:39;;;;;;;12.13;3.10;;;9.80;99.90;;;;;;5004859;28;20024;-87
2024/04/05 06:08:06;;;;;;;19.25;4.10;;;9.80;99.90;;;;;;4983822;28;20403;-88
2024/04/05 06:10:31;;;;;;;15.68;3.80;;;9.80;99.90;;;;;;4986549;28;20085;-88
2024/04/05 06:12:57;;;;;;;15.20;4.10;;;9.80;99.90;;;;;;5019185;28;20486;-88
2024/04/05 06:15:23;;;;;;;18.58;4.57;;;9.90;99.90;;;;;;4986947;28;20022;-87
2024/04/05 06:17:48;;;;;;;14.93;3.30;;;9.90;99.90;;;;;;4972791;28;20033;-88
2024/04/05 06:20:17;;;;;;;19.58;4.03;;;9.90;99.90;;;;;;4959662;28;20030;-87
2024/04/05 06:22:42;;;;;;;16.08;3.55;;;10.00;99.90;;;;;;4911329;28;20490;-87
2024/04/05 06:25:14;;;;;;;12.50;3.78;;;10.00;99.90;;;;;;4905468;28;20080;-86
2024/04/05 06:27:39;;;;;;;23.33;4.97;;;10.10;99.90;;;;;;4950357;28;20423;-87
2024/04/05 06:30:08;;;;;;;17.13;4.15;;;10.10;99.90;;;;;;4907998;28;20636;-86
2024/04/05 06:32:34;;;;;;;20.52;4.30;;;10.10;99.90;;;;;;4938752;28;20040;-87
2024/04/05 06:34:59;;;;;;;17.90;4.55;;;10.30;99.90;;;;;;4928726;28;20034;-87
2024/04/05 06:37:26;;;;;;;14.65;3.78;;;10.30;99.90;;;;;;4896699;28;21423;-87
2024/04/05 06:39:53;;;;;;;17.52;3.85;;;10.40;99.90;;;;;;4950308;28;20501;-87
2024/04/05 06:42:20;;;;;;;14.70;4.20;;;10.50;99.90;;;;;;4926590;28;20044;-87
2024/04/05 06:44:49;;;;;;;13.00;3.28;;;10.60;99.90;;;;;;4910672;28;20109;-86
2024/04/05 06:47:15;;;;;;;20.90;4.65;;;10.60;99.90;;;;;;4940801;28;20405;-86
2024/04/05 06:49:40;;;;;;;12.30;3.97;;;10.60;99.90;;;;;;4896211;28;20018;-86
2024/04/05 06:52:08;;;;;;;16.10;3.58;;;10.60;99.90;;;;;;4917798;28;20021;-86
2024/04/05 06:54:34;;;;;;;11.85;3.25;;;10.60;99.90;;;;;;4932213;28;20037;-87
2024/04/05 06:57:03;;;;;;;13.50;3.10;;;10.60;99.90;;;;;;4952397;28;20911;-87
2024/04/05 06:59:32;;;;;;;15.15;3.58;;;10.70;99.90;;;;;;4945742;28;20038;-87
2024/04/05 07:01:58;;;;;;;13.35;3.55;;;10.70;99.90;;;;;;4900090;28;20041;-88
2024/04/05 07:04:25;;;;;;;10.65;4.05;;;10.60;99.90;;;;;;4912480;28;21543;-87
2024/04/05 07:06:51;;;;;;;15.23;3.58;;;10.70;99.90;;;;;;4954711;28;20029;-88
2024/04/05 07:09:20;;;;;;;12.88;3.30;;;10.70;99.90;;;;;;4944216;28;20045;-88
2024/04/05 07:11:55;;;;;;;16.08;3.42;;;10.80;99.90;;;;;;4926767;28;20122;-87
2024/04/05 07:14:21;;;;;;;16.20;3.50;;;10.90;99.90;;;;;;4940695;28;20530;-86
2024/04/05 07:17:13;;;;;;;17.17;4.53;;;10.90;99.90;;;;;;4900436;28;20378;-89
2024/04/05 07:20:04;;;;;;;12.88;2.83;;;11.00;99.90;;;;;;4893753;28;20030;-88
2024/04/05 07:22:50;;;;;;;14.32;3.10;;;11.10;99.90;;;;;;4916269;28;20549;-87
2024/04/05 07:25:15;;;;;;;17.70;3.05;;;11.10;99.90;;;;;;4910711;28;20029;-88
2024/04/05 07:27:41;;;;;;;14.73;4.13;;;11.10;99.90;;;;;;4943183;28;20034;-87
2024/04/05 07:30:08;;;;;;;14.50;3.42;;;11.00;99.90;;;;;;4928009;28;20588;-87
2024/04/05 07:32:34;;;;;;;15.02;3.55;;;11.00;99.90;;;;;;4944776;28;20025;-86
2024/04/05 07:35:00;;;;;;;12.30;3.47;;;11.00;99.90;;;;;;4925776;28;20513;-86
2024/04/05 07:37:26;;;;;;;16.63;4.97;;;11.00;99.90;;;;;;4950159;28;20033;-87
2024/04/05 07:39:54;;;;;;;16.35;3.35;;;10.90;99.90;;;;;;4931909;28;21486;-86
2024/04/05 07:42:20;;;;;;;13.02;3.72;;;11.00;99.90;;;;;;4957646;28;20547;-85
2024/04/05 07:44:47;;;;;;;14.73;3.33;;;11.00;99.90;;;;;;4933374;28;20129;-87
2024/04/05 07:47:13;;;;;;;17.42;3.22;;;11.00;99.90;;;;;;4977750;28;20040;-86
2024/04/05 07:49:39;;;;;;;10.10;2.70;;;11.00;99.90;;;;;;4936883;28;20433;-86
2024/04/05 07:52:05;;;;;;;16.80;3.10;;;11.00;99.90;;;;;;4947907;28;20528;-86
2024/04/05 07:54:31;;;;;;;14.73;3.53;;;11.00;99.90;;;;;;4942564;28;20038;-86
2024/04/05 07:56:57;;;;;;;10.02;3.78;;;11.00;99.90;;;;;;4958334;28;21546;-87
2024/04/05 07:59:22;;;;;;;13.43;3.42;;;11.00;99.90;;;;;;4971633;28;21050;-89
2024/04/05 08:01:49;;;;;;;16.77;4.75;;;11.10;99.90;;;;;;4950415;28;20050;-87
2024/04/05 08:04:15;;;;;;;15.65;4.63;;;11.10;99.90;;;;;;4929180;28;20025;-87
2024/04/05 08:06:40;;;;;;;10.88;3.20;;;11.20;99.90;;;;;;4927295;28;20510;-86
2024/04/05 08:09:07;;;;;;;12.38;4.38;;;11.20;99.90;;;;;;4961179;28;20347;-87
2024/04/05 08:11:32;;;;;;;13.05;4.72;;;11.20;99.90;;;;;;4976317;28;20026;-87
2024/04/05 08:13:58;;;;;;;14.30;4.22;;;11.20;99.90;;;;;;4946494;28;20508;-87
2024/04/05 08:16:24;;;;;;;13.35;3.85;;;11.30;99.90;;;;;;4930801;28;20048;-87
2024/04/05 08:18:49;;;;;;;12.88;4.63;;;11.30;99.90;;;;;;4928657;28;20124;-87
2024/04/05 08:21:15;;;;;;;12.65;4.47;;;11.30;99.90;;;;;;4882853;28;20064;-87
2024/04/05 08:23:42;;;;;;;11.43;3.95;;;11.40;99.90;;;;;;4931317;28;20053;-85
2024/04/05 08:26:08;;;;;;;17.02;3.45;;;11.40;99.90;;;;;;4956642;28;20084;-87
2024/04/05 08:28:33;;;;;;;14.13;4.28;;;11.50;99.90;;;;;;4926758;28;20533;-86
2024/04/05 08:30:59;;;;;;;10.05;3.50;;;11.60;99.90;;;;;;4912204;28;20030;-88
2024/04/05 08:33:28;;;;;;;21.00;3.60;;;11.70;99.90;;;;;;4924428;28;20692;-87
2024/04/05 08:35:54;;;;;;;11.60;3.55;;;11.70;99.90;;;;;;4918409;28;20590;-87
2024/04/05 08:38:20;;;;;;;9.75;3.53;;;11.80;99.90;;;;;;4934252;28;20032;-85
2024/04/05 08:40:47;;;;;;;17.77;3.97;;;12.00;99.90;;;;;;4953005;28;20026;-87
2024/04/05 08:43:15;;;;;;;16.73;4.15;;;12.30;99.90;;;;;;4896523;28;20071;-87
2024/04/05 08:45:42;;;;;;;14.05;3.75;;;12.60;99.90;;;;;;4905618;28;20041;-86
2024/04/05 08:48:08;;;;;;;19.67;3.83;;;12.70;99.90;;;;;;4931318;28;20018;-87
2024/04/05 08:50:35;;;;;;;16.45;3.60;;;13.10;99.90;;;;;;4950460;28;20717;-87
2024/04/05 08:53:01;;;;;;;13.77;3.42;;;13.30;99.90;;;;;;4946697;28;20034;-88
2024/04/05 08:55:27;;;;;;;12.98;3.35;;;13.50;99.90;;;;;;4919958;28;20080;-89
2024/04/05 08:57:55;;;;;;;9.10;3.75;;;13.80;99.90;;;;;;4898559;28;20591;-86
2024/04/05 09:00:24;;;;;;;10.65;4.18;;;14.00;99.90;;;;;;4917328;28;20176;-87
2024/04/05 09:02:53;;;;;;;12.60;4.35;;;14.20;99.90;;;;;;4898207;28;20029;-87
2024/04/05 09:05:19;;;;;;;10.90;3.92;;;14.40;99.90;;;;;;4979795;28;20045;-86
2024/04/05 09:07:46;;;;;;;11.60;3.13;;;14.50;99.90;;;;;;4930210;28;20057;-87
2024/04/05 09:10:19;;;;;;;13.57;3.53;;;14.60;99.90;;;;;;4888525;28;20030;-87
2024/04/05 09:12:51;;;;;;;12.93;3.95;;;14.70;99.90;;;;;;4879635;28;20521;-87
2024/04/05 09:15:20;;;;;;;9.82;2.97;;;14.70;99.90;;;;;;4921707;28;20507;-87
2024/04/05 09:17:52;;;;;;;9.60;3.20;;;14.80;99.90;;;;;;4914329;28;20030;-87
2024/04/05 09:20:25;;;;;;;11.15;3.58;;;14.90;99.90;;;;;;4957483;28;20068;-87
2024/04/05 09:23:06;;;;;;;13.85;3.72;;;14.90;99.90;;;;;;4943686;28;20097;-88
2024/04/05 09:25:35;;;;;;;6.93;2.78;;;14.90;99.90;;;;;;4945114;28;20017;-87
2024/04/05 09:28:08;;;;;;;11.75;3.22;;;15.00;99.90;;;;;;4862673;28;20045;-89
2024/04/05 09:30:35;;;;;;;10.18;3.58;;;14.90;99.90;;;;;;4914717;28;20037;-87
2024/04/05 09:33:01;;;;;;;11.57;3.65;;;15.00;99.90;;;;;;4911208;28;21490;-87
2024/04/05 09:35:28;;;;;;;14.27;3.70;;;15.10;99.90;;;;;;4965298;28;21698;-88
2024/04/05 09:37:56;;;;;;;12.65;3.50;;;15.20;99.90;;;;;;4966106;28;20083;-88
2024/04/05 09:40:23;;;;;;;7.07;2.70;;;15.40;99.90;;;;;;4884383;28;20041;-88
2024/04/05 09:42:53;;;;;;;10.63;3.25;;;15.50;99.90;;;;;;4894858;28;20104;-88
2024/04/05 09:45:24;;;;;;;11.13;3.50;;;15.70;99.90;;;;;;4913844;28;20021;-87
2024/04/05 09:47:52;;;;;;;11.57;2.65;;;15.80;99.90;;;;;;4923591;28;20476;-87
2024/04/05 09:50:21;;;;;;;7.88;2.63;;;15.80;99.90;;;;;;4926395;28;22349;-88
2024/04/05 09:52:53;;;;;;;9.25;2.83;;;15.80;99.90;;;;;;4948135;28;20041;-88
2024/04/05 09:55:23;;;;;;;13.38;3.10;;;15.80;99.90;;;;;;4955483;28;20033;-88
2024/04/05 09:57:49;;;;;;;14.43;3.00;;;15.70;99.90;;;;;;4955650;28;21536;-89
2024/04/05 10:00:27;;;;;;;8.88;2.63;;;15.70;99.90;;;;;;4966868;28;20026;-88
2024/04/05 10:02:55;;;;;;;7.03;2.58;;;15.70;99.90;;;;;;4964229;28;20076;-88
2024/04/05 10:05:39;;;;;;;9.57;2.92;;;15.70;99.90;;;;;;4916799;28;21575;-88
2024/04/05 10:08:17;;;;;;;7.88;3.17;;;15.70;99.90;;;;;;4943065;28;20053;-87
2024/04/05 10:10:43;;;;;;;8.35;2.75;;;15.80;99.90;;;;;;4962111;28;20022;-87
2024/04/05 10:13:23;;;;;;;8.57;2.65;;;15.90;99.90;;;;;;4949902;28;20030;-88
2024/04/05 10:15:57;;;;;;;12.65;3.40;;;16.10;99.90;;;;;;4932162;28;21426;-88
2024/04/05 10:18:30;;;;;;;7.47;2.20;;;16.30;99.90;;;;;;4975625;28;20047;-89
2024/04/05 10:21:08;;;;;;;9.88;3.00;;;16.60;99.90;;;;;;4976026;28;20120;-87
2024/04/05 10:23:35;;;;;;;8.95;2.50;;;16.70;99.90;;;;;;4897435;28;20034;-88
2024/04/05 10:26:01;;;;;;;7.65;2.58;;;16.80;99.90;;;;;;5005408;28;20030;-86
2024/04/05 10:28:30;;;;;;;6.22;1.98;;;16.90;99.90;;;;;;4946896;28;20049;-88
2024/04/05 10:31:00;;;;;;;9.68;3.08;;;17.00;99.90;;;;;;4938371;28;21437;-88
2024/04/05 10:33:26;;;;;;;10.38;2.83;;;16.90;99.90;;;;;;4984531;28;20121;-90
2024/04/05 10:35:57;;;;;;;12.48;3.00;;;17.00;99.90;;;;;;4912369;28;20446;-88
2024/04/05 10:38:23;;;;;;;7.05;2.35;;;17.00;99.90;;;;;;4898404;28;22576;-86
2024/04/05 10:41:02;;;;;;;5.20;2.05;;;16.90;99.90;;;;;;4935432;28;20049;-86
2024/04/05 10:43:28;;;;;;;7.80;2.25;;;16.90;99.90;;;;;;4885596;28;20735;-86
2024/04/05 10:45:58;;;;;;;10.65;2.75;;;16.80;99.90;;;;;;4902713;28;20072;-86
2024/04/05 10:48:25;;;;;;;5.03;2.00;;;16.80;99.90;;;;;;4961194;28;20037;-87
2024/04/05 10:50:52;;;;;;;5.95;2.10;;;16.80;99.90;;;;;;4864470;28;20021;-86
2024/04/05 10:53:19;;;;;;;4.63;1.20;;;16.70;99.90;;;;;;4926476;28;20621;-87
2024/04/05 10:55:45;;;;;;;7.95;1.98;;;16.70;99.90;;;;;;4961142;28;20037;-87
2024/04/05 10:58:12;;;;;;;6.45;1.70;;;16.70;99.90;;;;;;4883072;28;20085;-85
2024/04/05 11:00:46;;;;;;;4.13;1.55;;;16.60;99.90;;;;;;4906892;28;20570;-85
2024/04/05 11:03:13;;;;;;;11.13;1.83;;;16.60;99.90;;;;;;4982825;28;20057;-84
2024/04/05 11:05:39;;;;;;;4.93;2.03;;;16.60;99.90;;;;;;4886758;28;20045;-86
2024/04/05 11:08:06;;;;;;;5.13;1.95;;;16.60;99.90;;;;;;4901007;28;20104;-84
2024/04/05 11:10:36;;;;;;;2.05;1.52;;;16.60;99.90;;;;;;4906589;28;20025;-86
2024/04/05 11:13:17;;;;;;;1.98;1.10;;;16.50;99.90;;;;;;4871517;28;20136;-86
2024/04/05 11:15:46;;;;;;;6.22;1.42;;;16.50;99.90;;;;;;4895099;28;20046;-86
2024/04/05 11:18:13;;;;;;;5.00;1.42;;;16.50;99.90;;;;;;4969840;28;20037;-87
2024/04/05 11:20:42;;;;;;;5.88;1.92;;;16.40;99.90;;;;;;4893122;28;20406;-86
2024/04/05 11:23:14;;;;;;;4.40;1.55;;;16.40;99.90;;;;;;4881327;28;20473;-86
2024/04/05 11:25:40;;;;;;;5.22;1.60;;;16.30;99.90;;;;;;4916634;28;20017;-87
2024/04/05 11:28:12;;;;;;;3.40;1.83;;;16.30;99.90;;;;;;4886564;28;20022;-86
2024/04/05 11:30:44;;;;;;;6.28;1.75;;;16.30;99.90;;;;;;4956576;28;20033;-86
2024/04/05 11:33:10;;;;;;;6.13;1.60;;;16.20;99.90;;;;;;4965323;28;20038;-86
2024/04/05 11:35:40;;;;;;;4.70;1.67;;;16.20;99.90;;;;;;4909408;28;20478;-87
2024/04/05 11:38:06;;;;;;;5.50;1.80;;;16.20;99.90;;;;;;4912057;28;20062;-86
2024/04/05 11:40:33;;;;;;;3.67;1.65;;;16.10;99.90;;;;;;4908754;28;20522;-86
2024/04/05 11:42:58;;;;;;;5.75;2.05;;;16.10;99.90;;;;;;4905429;28;22093;-87
2024/04/05 11:45:24;;;;;;;6.47;1.75;;;16.10;99.90;;;;;;4953467;28;20030;-86
2024/04/05 11:47:54;;;;;;;5.03;1.90;;;16.10;99.90;;;;;;4917515;28;20038;-87
2024/04/05 11:50:19;;;;;;;6.85;2.47;;;16.10;99.90;;;;;;4903730;28;20045;-86
2024/04/05 11:52:45;;;;;;;8.45;2.25;;;16.20;99.90;;;;;;4952224;28;20029;-87
2024/04/05 11:55:10;;;;;;;7.50;1.67;;;16.20;99.90;;;;;;4894691;28;20029;-86
2024/04/05 11:57:37;;;;;;;6.72;2.30;;;16.10;99.90;;;;;;4949093;28;20053;-86
2024/04/05 12:00:10;;;;;;;5.68;1.60;;;16.00;99.90;;;;;;4931308;28;20430;-87
2024/04/05 12:02:41;;;;;;;4.22;2.00;;;16.00;99.90;;;;;;4875990;28;20030;-89
2024/04/05 12:05:25;;;;;;;6.07;2.20;;;16.00;99.90;;;;;;4930279;28;20617;-86
2024/04/05 12:07:57;;;;;;;6.30;2.05;;;15.90;99.90;;;;;;4955316;28;20056;-85
2024/04/05 12:10:23;;;;;;;4.57;1.70;;;15.80;99.90;;;;;;4894728;28;20033;-88
2024/04/05 12:12:48;;;;;;;3.53;1.67;;;15.80;99.90;;;;;;4907835;28;20397;-86
2024/04/05 12:15:17;;;;;;;6.75;2.55;;;15.70;99.90;;;;;;4961598;28;20037;-86
2024/04/05 12:17:43;;;;;;;4.68;2.25;;;15.60;99.90;;;;;;4846458;28;20842;-86
2024/04/05 12:20:10;;;;;;;5.00;2.30;;;15.60;99.90;;;;;;4891206;28;20128;-84
2024/04/05 12:22:37;;;;;;;6.47;2.58;;;15.50;99.90;;;;;;4941004;28;20069;-86
2024/04/05 12:25:04;;;;;;;7.82;2.72;;;15.40;99.90;;;;;;4884818;28;21133;-86
2024/04/05 12:27:29;;;;;;;9.00;2.15;;;15.40;99.90;;;;;;4976751;28;20079;-86
2024/04/05 12:29:55;;;;;;;9.15;2.78;;;15.30;99.90;;;;;;4916581;28;20026;-87
2024/04/05 12:32:20;;;;;;;5.53;1.88;;;15.20;99.90;;;;;;4914777;28;21031;-84
2024/04/05 12:34:46;;;;;;;4.88;2.47;;;15.10;99.90;;;;;;4928812;28;21538;-86
2024/04/05 12:37:21;;;;;;;5.20;2.08;;;15.10;99.90;;;;;;4896440;28;20029;-85
2024/04/05 12:39:48;;;;;;;8.20;3.75;;;15.00;99.90;;;;;;4895202;28;20037;-83
2024/04/05 12:42:15;;;;;;;7.38;2.80;;;15.00;99.90;;;;;;4955111;28;20033;-85
2024/04/05 12:44:42;;;;;;;6.18;3.17;;;15.00;99.90;;;;;;4897884;28;20028;-86